Time;durP1;ratioP1;P1;durP2;ratioP2;P2;SDS_P1;SDS_P2;PMS_P1;PMS_P2;Temp;Humidity;BMP_temperature;BMP_pressure;BME280_temperature;BME280_humidity;BME280_pressure;Samples;Min_cycle;Max_cycle;Signal;HPM_P1;HPM_P2
2022/02/01 00:02:08;;;;;;;5.80;2.13;;;;;;;;;;5115190;28;20027;-77
2022/02/01 00:04:43;;;;;;;4.80;2.10;;;;;;;;;;5114302;28;20028;-72
2022/02/01 00:07:24;;;;;;;5.57;2.13;;;;;;;;;;5111438;28;20943;-70
2022/02/01 00:10:07;;;;;;;8.53;2.13;;;;;;;;;;5109360;28;20122;-70
2022/02/01 00:16:00;;;;;;;5.50;1.95;;;;;;;;;;5109401;28;20065;-70
2022/02/01 00:37:05;;;;;;;14.23;2.50;;;;;;;;;;5108614;28;20028;-70
2022/02/01 00:39:42;;;;;;;6.77;2.23;;;;;;;;;;5111243;28;20133;-70
2022/02/01 00:42:10;;;;;;;3.83;2.20;;;;;;;;;;5113870;28;20019;-69
2022/02/01 00:44:37;;;;;;;7.30;2.40;;;;;;;;;;5112489;28;20071;-70
2022/02/01 00:47:04;;;;;;;7.43;2.37;;;;;;;;;;5113774;28;20019;-69
2022/02/01 00:49:34;;;;;;;5.97;2.37;;;;;;;;;;5113671;28;20478;-72
2022/02/01 00:52:01;;;;;;;5.57;2.77;;;;;;;;;;5109755;28;20026;-72
2022/02/01 00:54:27;;;;;;;8.27;2.57;;;;;;;;;;5108418;28;20642;-68
2022/02/01 00:56:54;;;;;;;4.17;2.00;;;;;;;;;;5108537;28;20027;-68
2022/02/01 00:59:21;;;;;;;9.17;2.47;;;;;;;;;;5108298;28;20015;-68
2022/02/01 01:01:47;;;;;;;6.83;2.47;;;;;;;;;;5110908;28;20081;-70
2022/02/01 01:04:14;;;;;;;12.97;2.30;;;;;;;;;;5112949;28;20035;-68
2022/02/01 01:06:41;;;;;;;6.90;2.80;;;;;;;;;;5113101;28;20019;-68
2022/02/01 01:09:08;;;;;;;7.53;2.53;;;;;;;;;;5113338;28;20028;-69
2022/02/01 01:11:36;;;;;;;8.63;2.40;;;;;;;;;;5113271;28;20356;-68
2022/02/01 01:14:39;;;;;;;4.60;2.20;;;;;;;;;;5109885;28;20427;-68
2022/02/01 01:44:07;;;;;;;;;;;;;;;;;;5108167;28;20055;-69
2022/02/01 01:54:49;;;;;;;12.50;3.25;;;;;;;;;;5112579;28;20070;-69
2022/02/01 01:57:16;;;;;;;16.43;2.83;;;;;;;;;;5112263;28;20016;-69
2022/02/01 01:59:42;;;;;;;7.93;3.53;;;;;;;;;;5107485;28;20035;-69
2022/02/01 02:02:09;;;;;;;7.93;2.60;;;;;;;;;;5107786;28;20024;-69
2022/02/01 02:04:36;;;;;;;5.73;2.90;;;;;;;;;;5110928;28;20431;-69
2022/02/01 02:07:03;;;;;;;7.93;2.60;;;;;;;;;;5111717;28;20074;-69
2022/02/01 02:09:29;;;;;;;7.27;2.90;;;;;;;;;;5116224;28;20015;-68
2022/02/01 02:12:12;;;;;;;9.30;2.80;;;;;;;;;;5116727;28;20043;-69
2022/02/01 02:14:51;;;;;;;7.93;2.57;;;;;;;;;;5116138;28;20035;-69
2022/02/01 02:17:18;;;;;;;7.97;2.50;;;;;;;;;;5116602;28;20020;-69
2022/02/01 02:19:44;;;;;;;3.93;2.33;;;;;;;;;;5115334;28;20102;-69
2022/02/01 02:22:11;;;;;;;10.43;4.60;;;;;;;;;;5111507;28;20034;-69
2022/02/01 02:24:41;;;;;;;6.23;2.10;;;;;;;;;;5111132;28;20045;-69
2022/02/01 02:27:08;;;;;;;9.37;2.23;;;;;;;;;;5111325;28;20106;-69
2022/02/01 02:29:35;;;;;;;5.50;2.50;;;;;;;;;;5111393;28;20035;-68
2022/02/01 02:32:03;;;;;;;6.83;3.43;;;;;;;;;;5116500;28;20023;-68
2022/02/01 02:34:30;;;;;;;6.83;2.80;;;;;;;;;;5115484;28;20023;-68
2022/02/01 02:37:01;;;;;;;9.07;2.47;;;;;;;;;;5116341;28;20019;-68
2022/02/01 02:39:37;;;;;;;4.87;2.23;;;;;;;;;;5116354;28;20038;-68
2022/02/01 02:42:14;;;;;;;4.73;2.30;;;;;;;;;;5114839;28;20115;-70
2022/02/01 02:47:27;;;;;;;6.90;2.30;;;;;;;;;;5111397;28;20038;-69
2022/02/01 02:49:54;;;;;;;6.57;2.70;;;;;;;;;;5110857;28;20371;-69
2022/02/01 02:52:23;;;;;;;4.60;2.20;;;;;;;;;;5112238;28;20032;-69
2022/02/01 02:54:50;;;;;;;6.83;2.40;;;;;;;;;;5115619;28;20023;-69
2022/02/01 02:57:17;;;;;;;11.87;2.30;;;;;;;;;;5115532;28;20019;-69
2022/02/01 02:59:44;;;;;;;4.87;2.40;;;;;;;;;;5115259;28;20027;-69
2022/02/01 03:02:10;;;;;;;4.47;2.63;;;;;;;;;;5115768;28;20111;-69
2022/02/01 03:04:37;;;;;;;6.70;2.20;;;;;;;;;;5113916;28;20061;-69
2022/02/01 03:07:05;;;;;;;8.30;2.83;;;;;;;;;;5110655;28;20084;-69
2022/02/01 03:09:34;;;;;;;5.77;2.33;;;;;;;;;;5110405;28;20016;-69
2022/02/01 03:12:03;;;;;;;3.93;2.00;;;;;;;;;;5110209;28;20027;-68
2022/02/01 03:14:55;;;;;;;4.87;2.37;;;;;;;;;;5111619;28;20027;-69
2022/02/01 03:22:15;;;;;;;6.90;2.43;;;;;;;;;;5114572;28;20030;-68
2022/02/01 03:24:41;;;;;;;5.93;1.73;;;;;;;;;;5115316;28;20055;-69
2022/02/01 03:27:08;;;;;;;8.37;3.57;;;;;;;;;;5112960;28;20036;-69
2022/02/01 03:29:35;;;;;;;4.60;2.00;;;;;;;;;;5109916;28;20414;-68
2022/02/01 03:32:01;;;;;;;4.23;1.93;;;;;;;;;;5110204;28;20028;-68
2022/02/01 03:34:28;;;;;;;4.23;2.37;;;;;;;;;;5110168;28;20462;-69
2022/02/01 03:36:55;;;;;;;8.60;2.53;;;;;;;;;;5111642;28;20077;-69
2022/02/01 03:39:22;;;;;;;4.10;1.70;;;;;;;;;;5114263;28;20481;-69
2022/02/01 03:41:48;;;;;;;6.90;2.23;;;;;;;;;;5115007;28;20020;-69
2022/02/01 03:44:15;;;;;;;5.47;2.20;;;;;;;;;;5114829;28;20040;-69
2022/02/01 03:46:49;;;;;;;3.83;1.93;;;;;;;;;;5114798;28;20024;-69
2022/02/01 03:49:16;;;;;;;6.67;2.67;;;;;;;;;;5112128;28;20382;-69
2022/02/01 03:51:42;;;;;;;7.73;2.53;;;;;;;;;;5109929;28;20020;-68
2022/02/01 03:54:09;;;;;;;7.33;2.70;;;;;;;;;;5109362;28;20028;-69
2022/02/01 03:56:36;;;;;;;4.63;2.53;;;;;;;;;;5109701;28;20028;-69
2022/02/01 03:59:02;;;;;;;4.70;2.77;;;;;;;;;;5111125;28;20532;-69
2022/02/01 04:01:29;;;;;;;4.57;2.73;;;;;;;;;;5114157;28;20020;-70
2022/02/01 04:03:56;;;;;;;8.33;2.37;;;;;;;;;;5114436;28;20034;-73
2022/02/01 04:06:23;;;;;;;6.90;2.33;;;;;;;;;;5114081;28;20042;-70
2022/02/01 04:08:50;;;;;;;6.30;2.93;;;;;;;;;;5114412;28;20472;-72
2022/02/01 04:11:17;;;;;;;5.07;2.57;;;;;;;;;;5112381;28;20471;-71
2022/02/01 04:13:43;;;;;;;7.70;2.53;;;;;;;;;;5109236;28;20024;-67
2022/02/01 04:16:10;;;;;;;3.33;2.07;;;;;;;;;;5109095;28;20119;-68
2022/02/01 04:18:37;;;;;;;4.37;2.60;;;;;;;;;;5109213;28;20028;-68
2022/02/01 04:21:04;;;;;;;9.60;3.30;;;;;;;;;;5109818;28;20509;-68
2022/02/01 04:23:31;;;;;;;4.00;2.20;;;;;;;;;;5114188;28;20107;-67
2022/02/01 04:25:57;;;;;;;5.43;2.63;;;;;;;;;;5113193;28;20031;-68
2022/02/01 04:28:24;;;;;;;6.60;2.40;;;;;;;;;;5113766;28;20459;-68
2022/02/01 04:30:51;;;;;;;4.40;1.97;;;;;;;;;;5114194;28;20475;-67
2022/02/01 04:33:17;;;;;;;6.10;2.10;;;;;;;;;;5112848;28;20024;-68
2022/02/01 04:35:44;;;;;;;3.37;1.73;;;;;;;;;;5108471;28;20168;-70
2022/02/01 04:38:11;;;;;;;10.57;2.10;;;;;;;;;;5108851;28;20050;-70
2022/02/01 04:40:38;;;;;;;4.60;1.83;;;;;;;;;;5108646;28;20035;-70
2022/02/01 04:43:06;;;;;;;4.90;2.53;;;;;;;;;;5108430;28;20031;-68
2022/02/01 04:45:33;;;;;;;5.50;2.13;;;;;;;;;;5113448;28;20382;-70
2022/02/01 04:48:01;;;;;;;5.00;2.00;;;;;;;;;;5095338;28;20016;-70
2022/02/01 04:50:29;;;;;;;3.60;2.10;;;;;;;;;;5113632;28;20015;-70
2022/02/01 04:52:56;;;;;;;6.43;2.80;;;;;;;;;;5113305;28;20054;-70
2022/02/01 04:55:29;;;;;;;6.87;2.37;;;;;;;;;;5112683;28;20019;-69
2022/02/01 04:57:56;;;;;;;8.77;2.60;;;;;;;;;;5108149;28;20043;-70
2022/02/01 05:00:25;;;;;;;7.10;2.50;;;;;;;;;;5108384;28;20536;-70
2022/02/01 05:02:52;;;;;;;5.53;2.07;;;;;;;;;;5108244;28;20034;-69
2022/02/01 05:05:25;;;;;;;3.70;1.80;;;;;;;;;;5108746;28;20059;-69
2022/02/01 05:07:52;;;;;;;3.93;2.27;;;;;;;;;;5113322;28;20115;-68
2022/02/01 05:10:19;;;;;;;6.23;2.30;;;;;;;;;;5113405;28;20470;-68
2022/02/01 05:12:46;;;;;;;3.87;1.90;;;;;;;;;;5104197;28;20426;-68
2022/02/01 05:15:12;;;;;;;7.80;2.03;;;;;;;;;;5111811;28;20036;-68
2022/02/01 05:17:41;;;;;;;7.17;2.20;;;;;;;;;;5110252;28;20097;-68
2022/02/01 05:20:42;;;;;;;5.30;2.27;;;;;;;;;;5106613;28;20023;-68
2022/02/01 05:23:09;;;;;;;5.17;2.20;;;;;;;;;;5086104;28;20035;-69
2022/02/01 05:25:36;;;;;;;5.67;2.07;;;;;;;;;;5086293;28;20473;-69
2022/02/01 05:28:03;;;;;;;5.00;1.60;;;;;;;;;;5087438;28;20028;-68
2022/02/01 05:30:30;;;;;;;3.90;2.13;;;;;;;;;;5091242;28;20027;-68
2022/02/01 05:32:57;;;;;;;7.83;2.47;;;;;;;;;;5109916;28;20028;-68
2022/02/01 05:35:24;;;;;;;3.50;2.13;;;;;;;;;;5111181;28;20023;-68
2022/02/01 05:37:50;;;;;;;2.10;1.57;;;;;;;;;;5110089;28;20042;-68
2022/02/01 05:40:19;;;;;;;4.47;2.27;;;;;;;;;;5109544;28;20022;-68
2022/02/01 05:42:57;;;;;;;4.73;2.00;;;;;;;;;;5105696;28;20034;-68
2022/02/01 05:45:25;;;;;;;4.33;2.20;;;;;;;;;;5106236;28;20035;-69
2022/02/01 05:47:52;;;;;;;3.97;2.50;;;;;;;;;;5106211;28;20043;-68
2022/02/01 05:50:19;;;;;;;6.03;2.23;;;;;;;;;;5107404;28;20023;-68
2022/02/01 05:52:45;;;;;;;3.83;2.10;;;;;;;;;;5110050;28;20035;-69
2022/02/01 05:55:13;;;;;;;7.60;2.00;;;;;;;;;;5111200;28;20028;-69
2022/02/01 05:57:40;;;;;;;3.40;1.67;;;;;;;;;;5111193;28;20026;-68
2022/02/01 06:00:08;;;;;;;3.73;1.80;;;;;;;;;;5111012;28;20042;-68
2022/02/01 06:02:35;;;;;;;3.30;1.90;;;;;;;;;;5108845;28;20027;-68
2022/02/01 06:05:14;;;;;;;3.73;2.10;;;;;;;;;;5105672;28;20501;-68
2022/02/01 06:07:41;;;;;;;4.30;2.50;;;;;;;;;;5105765;28;20142;-69
2022/02/01 06:10:08;;;;;;;7.57;2.50;;;;;;;;;;5105999;28;20077;-68
2022/02/01 06:12:41;;;;;;;6.60;2.50;;;;;;;;;;5107322;28;20111;-69
2022/02/01 06:15:09;;;;;;;5.40;2.43;;;;;;;;;;5111248;28;20028;-67
2022/02/01 06:17:36;;;;;;;6.23;2.27;;;;;;;;;;5110610;28;20023;-69
2022/02/01 06:20:03;;;;;;;6.43;2.40;;;;;;;;;;5111034;28;20024;-69
2022/02/01 06:22:30;;;;;;;5.13;2.23;;;;;;;;;;5110345;28;20839;-68
2022/02/01 06:24:58;;;;;;;4.50;2.00;;;;;;;;;;5109028;28;20032;-68
2022/02/01 06:27:25;;;;;;;4.17;2.20;;;;;;;;;;5106864;28;20023;-68
2022/02/01 06:29:52;;;;;;;6.43;2.50;;;;;;;;;;5106907;28;20035;-68
2022/02/01 06:32:19;;;;;;;4.53;2.40;;;;;;;;;;5106319;28;20076;-68
2022/02/01 06:34:46;;;;;;;3.60;2.10;;;;;;;;;;5108665;28;20127;-68
2022/02/01 06:37:13;;;;;;;4.80;2.60;;;;;;;;;;5112461;28;20073;-68
2022/02/01 06:39:41;;;;;;;8.50;3.10;;;;;;;;;;5112509;28;20024;-68
2022/02/01 06:42:09;;;;;;;4.90;2.80;;;;;;;;;;5111412;28;20024;-68
2022/02/01 06:44:36;;;;;;;5.83;2.97;;;;;;;;;;5112320;28;20039;-68
2022/02/01 06:47:02;;;;;;;4.37;2.90;;;;;;;;;;5109915;28;20033;-68
2022/02/01 06:49:29;;;;;;;4.23;2.47;;;;;;;;;;5108152;28;20477;-68
2022/02/01 06:51:56;;;;;;;4.47;2.10;;;;;;;;;;5110555;28;20374;-68
2022/02/01 06:54:23;;;;;;;6.13;2.10;;;;;;;;;;5110678;28;20431;-68
2022/02/01 06:56:49;;;;;;;2.80;2.00;;;;;;;;;;5112086;28;20490;-67
2022/02/01 06:59:16;;;;;;;6.87;2.50;;;;;;;;;;5115940;28;20039;-68
2022/02/01 07:01:43;;;;;;;5.27;1.90;;;;;;;;;;5115246;28;20031;-68
2022/02/01 07:04:10;;;;;;;4.10;2.23;;;;;;;;;;5115894;28;20036;-68
2022/02/01 07:06:37;;;;;;;3.27;2.20;;;;;;;;;;5115427;28;20028;-68
2022/02/01 07:09:04;;;;;;;6.03;2.80;;;;;;;;;;5114282;28;20398;-68
2022/02/01 07:11:31;;;;;;;5.93;2.00;;;;;;;;;;5110412;28;20041;-68
2022/02/01 07:13:58;;;;;;;3.90;2.07;;;;;;;;;;5110007;28;20119;-68
2022/02/01 07:16:25;;;;;;;3.90;2.10;;;;;;;;;;5110263;28;20038;-68
2022/02/01 07:18:52;;;;;;;4.60;2.10;;;;;;;;;;5111374;28;20027;-68
2022/02/01 07:21:19;;;;;;;3.90;2.23;;;;;;;;;;5115590;28;20023;-68
2022/02/01 07:23:45;;;;;;;3.50;2.07;;;;;;;;;;5114848;28;20039;-68
2022/02/01 07:26:12;;;;;;;3.47;2.13;;;;;;;;;;5115428;28;20039;-68
2022/02/01 07:28:40;;;;;;;3.63;1.80;;;;;;;;;;5115482;28;20035;-68
2022/02/01 07:31:09;;;;;;;4.13;1.70;;;;;;;;;;5114022;28;20115;-68
2022/02/01 07:33:37;;;;;;;5.63;2.03;;;;;;;;;;5109342;28;20028;-67
2022/02/01 07:36:04;;;;;;;4.70;2.20;;;;;;;;;;5109834;28;20043;-68
2022/02/01 07:38:31;;;;;;;5.60;1.93;;;;;;;;;;5109556;28;20436;-68
2022/02/01 07:40:59;;;;;;;4.67;2.20;;;;;;;;;;5110596;28;20036;-67
2022/02/01 07:43:33;;;;;;;5.20;2.20;;;;;;;;;;5114661;28;20043;-67
2022/02/01 07:46:14;;;;;;;5.57;2.42;;;;;;;;;;5115055;28;20368;-67
2022/02/01 07:48:41;;;;;;;4.03;2.60;;;;;;;;;;5114707;28;20032;-67
2022/02/01 07:51:07;;;;;;;6.57;2.33;;;;;;;;;;5114759;28;20027;-67
2022/02/01 07:53:34;;;;;;;3.73;2.07;;;;;;;;;;5112759;28;20078;-68
2022/02/01 07:56:01;;;;;;;4.90;3.37;;;;;;;;;;5109461;28;20039;-67
2022/02/01 07:58:28;;;;;;;5.20;2.43;;;;;;;;;;5109693;28;20028;-68
2022/02/01 08:00:54;;;;;;;5.33;2.37;;;;;;;;;;5108660;28;20055;-67
2022/02/01 08:03:21;;;;;;;3.20;1.90;;;;;;;;;;5110124;28;20446;-67
2022/02/01 08:05:48;;;;;;;5.17;2.17;;;;;;;;;;5114174;28;20027;-67
2022/02/01 08:08:15;;;;;;;7.60;1.70;;;;;;;;;;5114521;28;20139;-68
2022/02/01 08:10:49;;;;;;;5.83;1.80;;;;;;;;;;5114639;28;20043;-67
2022/02/01 08:14:01;;;;;;;3.72;2.35;;;;;;;;;;5114295;28;20398;-67
2022/02/01 08:21:27;;;;;;;3.43;1.90;;;;;;;;;;5109121;28;20027;-67
2022/02/01 08:23:54;;;;;;;5.80;2.20;;;;;;;;;;5108560;28;20472;-68
2022/02/01 08:26:21;;;;;;;3.97;2.10;;;;;;;;;;5111515;28;20019;-67
2022/02/01 08:28:48;;;;;;;5.37;2.50;;;;;;;;;;5114337;28;20083;-68
2022/02/01 08:31:18;;;;;;;3.97;2.30;;;;;;;;;;5114076;28;20065;-67
2022/02/01 08:33:45;;;;;;;4.83;2.20;;;;;;;;;;5113935;28;20030;-67
2022/02/01 08:36:12;;;;;;;4.63;2.33;;;;;;;;;;5114218;28;20015;-67
2022/02/01 08:38:39;;;;;;;4.43;2.37;;;;;;;;;;5110670;28;20111;-67
2022/02/01 08:41:05;;;;;;;4.07;2.63;;;;;;;;;;5108519;28;20036;-67
2022/02/01 08:43:32;;;;;;;7.47;2.87;;;;;;;;;;5108234;28;20053;-67
2022/02/01 08:45:59;;;;;;;14.63;2.50;;;;;;;;;;5108782;28;20252;-67
2022/02/01 08:48:26;;;;;;;8.67;2.30;;;;;;;;;;5111238;28;20378;-67
2022/02/01 08:50:53;;;;;;;4.70;2.00;;;;;;;;;;5113775;28;20466;-67
2022/02/01 08:53:24;;;;;;;6.30;2.63;;;;;;;;;;5113508;28;20264;-67
2022/02/01 08:58:24;;;;;;;3.40;1.93;;;;;;;;;;5113469;28;20035;-67
2022/02/01 09:00:51;;;;;;;3.47;1.90;;;;;;;;;;5110270;28;20831;-68
2022/02/01 09:03:18;;;;;;;6.17;2.73;;;;;;;;;;5107842;28;20024;-67
2022/02/01 09:05:45;;;;;;;8.13;3.00;;;;;;;;;;5108334;28;20411;-67
2022/02/01 09:08:12;;;;;;;6.30;2.60;;;;;;;;;;5108182;28;20271;-67
2022/02/01 09:10:39;;;;;;;4.70;2.43;;;;;;;;;;5110548;28;20270;-67
2022/02/01 09:13:06;;;;;;;8.20;3.03;;;;;;;;;;5113015;28;20027;-67
2022/02/01 09:15:32;;;;;;;4.90;2.50;;;;;;;;;;5113150;28;20252;-67
2022/02/01 09:18:00;;;;;;;7.60;3.73;;;;;;;;;;5113319;28;20254;-67
2022/02/01 09:20:27;;;;;;;8.13;2.77;;;;;;;;;;5113331;28;20321;-67
2022/02/01 09:22:55;;;;;;;4.67;2.50;;;;;;;;;;5110114;28;20260;-67
2022/02/01 09:25:21;;;;;;;6.33;2.60;;;;;;;;;;5107405;28;20782;-67
2022/02/01 09:27:49;;;;;;;7.40;3.83;;;;;;;;;;5107857;28;20343;-67
2022/02/01 09:30:17;;;;;;;6.57;3.57;;;;;;;;;;5107809;28;20274;-66
2022/02/01 09:32:45;;;;;;;4.90;2.50;;;;;;;;;;5110241;28;20263;-67
2022/02/01 09:35:12;;;;;;;7.33;3.10;;;;;;;;;;5112576;28;20351;-67
2022/02/01 09:37:38;;;;;;;6.97;3.60;;;;;;;;;;5112997;28;20252;-67
2022/02/01 09:40:06;;;;;;;6.33;3.40;;;;;;;;;;5113078;28;20646;-67
2022/02/01 09:42:32;;;;;;;7.77;2.53;;;;;;;;;;5112711;28;20256;-67
2022/02/01 09:44:59;;;;;;;6.33;3.53;;;;;;;;;;5109911;28;20299;-67
2022/02/01 09:47:35;;;;;;;6.83;3.43;;;;;;;;;;5107539;28;20264;-67
2022/02/01 09:50:03;;;;;;;5.57;3.23;;;;;;;;;;5107329;28;20283;-66
2022/02/01 09:52:31;;;;;;;7.07;3.37;;;;;;;;;;5107491;28;20256;-67
2022/02/01 09:54:58;;;;;;;5.07;2.90;;;;;;;;;;5109736;28;20260;-66
2022/02/01 09:57:25;;;;;;;4.77;2.70;;;;;;;;;;5112343;28;20596;-67
2022/02/01 09:59:55;;;;;;;6.80;2.73;;;;;;;;;;5112806;28;20252;-67
2022/02/01 10:02:33;;;;;;;7.60;3.60;;;;;;;;;;5112749;28;20302;-67
2022/02/01 10:05:04;;;;;;;6.17;3.20;;;;;;;;;;5112438;28;20284;-66
2022/02/01 10:07:31;;;;;;;8.43;3.37;;;;;;;;;;5108520;28;20295;-67
2022/02/01 10:10:01;;;;;;;5.50;2.73;;;;;;;;;;5106973;28;20450;-67
2022/02/01 10:12:34;;;;;;;3.97;2.50;;;;;;;;;;5107328;28;20323;-67
2022/02/01 10:15:14;;;;;;;6.80;2.57;;;;;;;;;;5107228;28;20252;-66
2022/02/01 10:17:46;;;;;;;3.70;2.30;;;;;;;;;;5110577;28;20329;-67
2022/02/01 10:20:14;;;;;;;4.70;2.43;;;;;;;;;;5112378;28;20299;-66
2022/02/01 10:22:41;;;;;;;5.10;2.60;;;;;;;;;;5112638;28;20253;-66
2022/02/01 10:25:29;;;;;;;7.63;3.10;;;;;;;;;;5114921;28;20284;-66
2022/02/01 10:27:57;;;;;;;5.17;3.47;;;;;;;;;;5116224;28;20263;-66
2022/02/01 10:30:42;;;;;;;4.93;1.90;;;;;;;;;;5111217;28;20739;-67
2022/02/01 10:33:20;;;;;;;3.38;2.20;;;;;;;;;;5110905;28;20272;-67
2022/02/01 10:35:57;;;;;;;4.37;2.37;;;;;;;;;;5111159;28;20482;-67
2022/02/01 10:38:30;;;;;;;7.33;3.13;;;;;;;;;;5111507;28;20260;-66
2022/02/01 10:40:57;;;;;;;12.67;3.50;;;;;;;;;;5116055;28;20252;-66
2022/02/01 10:43:31;;;;;;;3.87;2.40;;;;;;;;;;5116348;28;20290;-66
2022/02/01 10:46:07;;;;;;;5.73;2.60;;;;;;;;;;5115397;28;20260;-68
2022/02/01 10:48:35;;;;;;;4.83;2.60;;;;;;;;;;5116289;28;20276;-65
2022/02/01 10:51:06;;;;;;;5.60;2.17;;;;;;;;;;5114555;28;20264;-67
2022/02/01 10:53:34;;;;;;;6.83;2.77;;;;;;;;;;5110896;28;20773;-66
2022/02/01 10:56:01;;;;;;;4.47;2.77;;;;;;;;;;5110722;28;20260;-66
2022/02/01 10:58:28;;;;;;;4.50;2.73;;;;;;;;;;5110330;28;20270;-66
2022/02/01 11:00:55;;;;;;;8.00;2.77;;;;;;;;;;5111561;28;20288;-66
2022/02/01 11:03:22;;;;;;;5.67;2.53;;;;;;;;;;5115842;28;20255;-66
2022/02/01 11:05:50;;;;;;;4.27;2.40;;;;;;;;;;5116051;28;20249;-66
2022/02/01 11:08:17;;;;;;;7.20;3.67;;;;;;;;;;5115499;28;20256;-66
2022/02/01 11:10:49;;;;;;;4.07;2.63;;;;;;;;;;5115734;28;20271;-66
2022/02/01 11:13:16;;;;;;;6.00;2.70;;;;;;;;;;5113601;28;20603;-66
2022/02/01 11:15:56;;;;;;;5.40;2.50;;;;;;;;;;5110250;28;20248;-66
2022/02/01 11:18:27;;;;;;;6.17;2.50;;;;;;;;;;5110189;28;20256;-66
2022/02/01 11:21:19;;;;;;;6.10;2.83;;;;;;;;;;5109954;28;20264;-67
2022/02/01 11:23:51;;;;;;;5.13;3.30;;;;;;;;;;5109437;28;20284;-67
2022/02/01 11:31:47;;;;;;;8.30;3.03;;;;;;;;;;5115271;28;20746;-66
2022/02/01 11:34:16;;;;;;;6.23;3.10;;;;;;;;;;5114746;28;20268;-66
2022/02/01 11:36:43;;;;;;;4.37;2.83;;;;;;;;;;5108694;28;20267;-67
2022/02/01 11:39:13;;;;;;;6.67;3.00;;;;;;;;;;5109938;28;20331;-66
2022/02/01 11:41:41;;;;;;;11.17;4.80;;;;;;;;;;5109629;28;20606;-66
2022/02/01 11:44:26;;;;;;;6.33;2.70;;;;;;;;;;5109676;28;20672;-66
2022/02/01 11:47:01;;;;;;;4.53;2.70;;;;;;;;;;5114439;28;20267;-66
2022/02/01 11:49:28;;;;;;;5.83;2.37;;;;;;;;;;5115105;28;20258;-66
2022/02/01 11:52:05;;;;;;;4.60;2.53;;;;;;;;;;5114631;28;20283;-66
2022/02/01 11:54:33;;;;;;;6.00;2.80;;;;;;;;;;5114926;28;20313;-66
2022/02/01 11:57:10;;;;;;;4.87;2.60;;;;;;;;;;5114250;28;20247;-67
2022/02/01 11:59:37;;;;;;;4.37;2.23;;;;;;;;;;5109356;28;20272;-67
2022/02/01 12:02:06;;;;;;;3.33;1.83;;;;;;;;;;5109194;28;20305;-66
2022/02/01 12:04:42;;;;;;;4.87;2.43;;;;;;;;;;5109451;28;20283;-67
2022/02/01 12:07:09;;;;;;;5.00;2.63;;;;;;;;;;5110049;28;20260;-66
2022/02/01 12:09:40;;;;;;;3.40;2.00;;;;;;;;;;5114690;28;20264;-66
2022/02/01 12:12:08;;;;;;;7.17;3.40;;;;;;;;;;5114277;28;20311;-66
2022/02/01 12:14:34;;;;;;;4.30;2.53;;;;;;;;;;5114297;28;20263;-67
2022/02/01 12:17:01;;;;;;;7.00;2.50;;;;;;;;;;5114032;28;20264;-66
2022/02/01 12:19:32;;;;;;;4.77;2.77;;;;;;;;;;5113026;28;20260;-66
2022/02/01 12:22:02;;;;;;;4.60;2.90;;;;;;;;;;5109197;28;20267;-67
2022/02/01 12:24:29;;;;;;;4.83;2.50;;;;;;;;;;5108999;28;20372;-66
2022/02/01 12:26:55;;;;;;;4.47;2.93;;;;;;;;;;5108779;28;20326;-66
2022/02/01 12:29:22;;;;;;;6.03;3.27;;;;;;;;;;5109661;28;20276;-66
2022/02/01 12:31:52;;;;;;;8.80;2.80;;;;;;;;;;5114168;28;20271;-66
2022/02/01 12:34:20;;;;;;;6.90;3.20;;;;;;;;;;5114217;28;20256;-67
2022/02/01 12:36:50;;;;;;;7.90;3.57;;;;;;;;;;5114194;28;20259;-66
2022/02/01 12:39:35;;;;;;;5.10;2.90;;;;;;;;;;5113744;28;20268;-66
2022/02/01 12:42:08;;;;;;;7.15;3.10;;;;;;;;;;5111842;28;20751;-66
2022/02/01 12:47:07;;;;;;;4.40;3.00;;;;;;;;;;5108084;28;20817;-66
2022/02/01 12:49:36;;;;;;;9.30;3.10;;;;;;;;;;5108648;28;20346;-67
2022/02/01 12:52:04;;;;;;;7.57;3.23;;;;;;;;;;5109973;28;20397;-66
2022/02/01 12:54:39;;;;;;;7.40;3.10;;;;;;;;;;5113286;28;20267;-66
2022/02/01 12:57:13;;;;;;;9.07;3.00;;;;;;;;;;5113774;28;20260;-67
2022/02/01 12:59:47;;;;;;;5.45;3.38;;;;;;;;;;5113681;28;20020;-66
2022/02/01 13:02:18;;;;;;;8.13;3.90;;;;;;;;;;5113180;28;20058;-66
2022/02/01 13:04:45;;;;;;;4.77;3.03;;;;;;;;;;5109581;28;20287;-66
2022/02/01 13:07:27;;;;;;;5.50;2.97;;;;;;;;;;5108301;28;20264;-66
2022/02/01 13:13:09;;;;;;;5.90;3.20;;;;;;;;;;5108116;28;20303;-66
2022/02/01 13:15:41;;;;;;;7.87;2.53;;;;;;;;;;5112851;28;20271;-66
2022/02/01 13:20:43;;;;;;;8.50;4.50;;;;;;;;;;5112856;28;20303;-67
2022/02/01 13:23:10;;;;;;;5.93;3.50;;;;;;;;;;5113234;28;20347;-67
2022/02/01 13:25:39;;;;;;;4.87;3.30;;;;;;;;;;5112490;28;20336;-67
2022/02/01 13:28:07;;;;;;;9.37;4.80;;;;;;;;;;5107755;28;20750;-66
2022/02/01 13:30:35;;;;;;;8.23;3.67;;;;;;;;;;5106987;28;20801;-67
2022/02/01 13:33:06;;;;;;;11.87;5.70;;;;;;;;;;5107613;28;20279;-66
2022/02/01 13:35:34;;;;;;;8.57;4.80;;;;;;;;;;5107840;28;20610;-67
2022/02/01 13:38:12;;;;;;;17.03;5.63;;;;;;;;;;5112832;28;20283;-67
2022/02/01 13:40:39;;;;;;;10.43;4.87;;;;;;;;;;5112961;28;20303;-67
2022/02/01 13:43:22;;;;;;;15.87;5.57;;;;;;;;;;5112235;28;20299;-66
2022/02/01 13:45:50;;;;;;;9.27;4.53;;;;;;;;;;5112805;28;20284;-66
2022/02/01 13:48:21;;;;;;;12.90;6.73;;;;;;;;;;5110889;28;20347;-67
2022/02/01 13:50:47;;;;;;;15.27;8.23;;;;;;;;;;5107556;28;20279;-67
2022/02/01 13:53:14;;;;;;;20.70;8.97;;;;;;;;;;5106876;28;20267;-67
2022/02/01 13:55:41;;;;;;;15.43;8.03;;;;;;;;;;5107532;28;21042;-67
2022/02/01 13:58:11;;;;;;;18.60;8.13;;;;;;;;;;5108503;28;20283;-68
2022/02/01 14:00:39;;;;;;;14.90;7.87;;;;;;;;;;5112423;28;20256;-67
2022/02/01 14:03:14;;;;;;;14.70;6.77;;;;;;;;;;5112605;28;20280;-68
2022/02/01 14:05:43;;;;;;;14.32;7.95;;;;;;;;;;5111741;28;20410;-68
2022/02/01 14:08:25;;;;;;;15.97;6.83;;;;;;;;;;5112710;28;20035;-68
2022/02/01 14:11:22;;;;;;;10.93;7.40;;;;;;;;;;5109852;28;20274;-68
2022/02/01 14:26:48;;;;;;;8.20;4.43;;;;;;;;;;5112649;28;20112;-68
2022/02/01 14:34:31;;;;;;;6.90;4.13;;;;;;;;;;5106934;28;20036;-68
2022/02/01 14:37:02;;;;;;;7.07;3.67;;;;;;;;;;5107171;28;20016;-68
2022/02/01 14:44:58;;;;;;;9.23;4.38;;;;;;;;;;5112153;28;20038;-68
2022/02/01 14:47:25;;;;;;;8.20;3.40;;;;;;;;;;5112406;28;20020;-68
2022/02/01 14:49:52;;;;;;;10.37;4.20;;;;;;;;;;5111859;28;20470;-69
2022/02/01 14:52:19;;;;;;;5.33;3.07;;;;;;;;;;5112255;28;20107;-69
2022/02/01 14:54:49;;;;;;;5.73;3.17;;;;;;;;;;5109917;28;20023;-69
2022/02/01 15:13:39;;;;;;;11.97;3.20;;;;;;;;;;5115512;28;20074;-69
2022/02/01 15:16:06;;;;;;;11.17;3.97;;;;;;;;;;5115648;28;20095;-69
2022/02/01 15:18:33;;;;;;;11.87;4.77;;;;;;;;;;5110158;28;20039;-70
2022/02/01 15:21:00;;;;;;;12.23;5.23;;;;;;;;;;5110058;28;20526;-69
2022/02/01 15:23:26;;;;;;;9.60;5.30;;;;;;;;;;5110332;28;20023;-69
2022/02/01 15:25:53;;;;;;;12.10;4.87;;;;;;;;;;5110180;28;20441;-70
2022/02/01 15:28:21;;;;;;;17.33;6.70;;;;;;;;;;5115322;28;20015;-69
2022/02/01 15:30:48;;;;;;;7.80;4.70;;;;;;;;;;5114923;28;20462;-69
2022/02/01 15:33:16;;;;;;;8.60;3.90;;;;;;;;;;5115034;28;20043;-69
2022/02/01 15:35:43;;;;;;;12.33;4.60;;;;;;;;;;5115425;28;20084;-69
2022/02/01 15:38:11;;;;;;;12.83;5.93;;;;;;;;;;5115030;28;20061;-69
2022/02/01 15:57:19;;;;;;;13.80;3.83;;;;;;;;;;5114888;28;20108;-69
2022/02/01 15:59:46;;;;;;;6.57;4.23;;;;;;;;;;5114770;28;20024;-70
2022/02/01 16:02:17;;;;;;;8.20;3.50;;;;;;;;;;5110531;28;20862;-69
2022/02/01 16:04:53;;;;;;;6.67;3.40;;;;;;;;;;5109026;28;20169;-69
2022/02/01 16:07:20;;;;;;;6.23;3.27;;;;;;;;;;5109198;28;20023;-70
2022/02/01 16:12:19;;;;;;;8.10;3.10;;;;;;;;;;5113302;28;20661;-70
2022/02/01 16:14:46;;;;;;;6.87;3.43;;;;;;;;;;5114602;28;20023;-70
2022/02/01 16:17:16;;;;;;;8.23;3.40;;;;;;;;;;5113655;28;20019;-70
2022/02/01 16:19:42;;;;;;;4.43;2.27;;;;;;;;;;5114577;28;20095;-70
2022/02/01 16:22:10;;;;;;;5.90;2.30;;;;;;;;;;5112982;28;20034;-69
2022/02/01 16:24:38;;;;;;;4.67;2.13;;;;;;;;;;5109305;28;20067;-70
2022/02/01 16:27:06;;;;;;;5.80;1.33;;;;;;;;;;5109317;28;20027;-70
2022/02/01 16:29:32;;;;;;;9.63;1.90;;;;;;;;;;5109281;28;20422;-70
2022/02/01 16:31:59;;;;;;;5.00;1.83;;;;;;;;;;5107812;28;20051;-70
2022/02/01 16:34:26;;;;;;;3.47;1.90;;;;;;;;;;5112929;28;20023;-70
2022/02/01 16:36:53;;;;;;;9.73;1.23;;;;;;;;;;5113935;28;20076;-69
2022/02/01 16:39:20;;;;;;;3.70;1.30;;;;;;;;;;5113933;28;20020;-69
2022/02/01 16:41:54;;;;;;;4.70;1.00;;;;;;;;;;5113984;28;20080;-69
2022/02/01 16:44:21;;;;;;;1.77;1.00;;;;;;;;;;5114217;28;20034;-70
2022/02/01 16:46:48;;;;;;;6.30;1.20;;;;;;;;;;5108172;28;20031;-70
2022/02/01 16:49:15;;;;;;;3.83;1.30;;;;;;;;;;5108548;28;20026;-70
2022/02/01 16:51:43;;;;;;;3.20;1.20;;;;;;;;;;5108670;28;20543;-69
2022/02/01 16:54:17;;;;;;;3.70;1.10;;;;;;;;;;5108388;28;20024;-70
2022/02/01 16:59:25;;;;;;;1.37;0.90;;;;;;;;;;5113341;28;20482;-70
2022/02/01 17:01:52;;;;;;;3.13;1.40;;;;;;;;;;5113700;28;20038;-70
2022/02/01 17:04:19;;;;;;;2.23;1.10;;;;;;;;;;5113476;28;20050;-70
2022/02/01 17:06:46;;;;;;;5.27;1.63;;;;;;;;;;5113303;28;20020;-71
2022/02/01 17:09:15;;;;;;;4.97;1.10;;;;;;;;;;5108239;28;20031;-70
2022/02/01 17:17:00;;;;;;;4.17;1.40;;;;;;;;;;5108136;28;20035;-70
2022/02/01 17:22:12;;;;;;;2.13;1.10;;;;;;;;;;5113242;28;20058;-70
2022/02/01 17:24:40;;;;;;;1.90;1.20;;;;;;;;;;5113392;28;20035;-70
2022/02/01 17:27:07;;;;;;;1.63;1.10;;;;;;;;;;5113194;28;20020;-70
2022/02/01 17:29:34;;;;;;;3.03;1.20;;;;;;;;;;5111090;28;20102;-68
2022/02/01 17:32:00;;;;;;;2.30;1.35;;;;;;;;;;5097650;28;20149;-67